DABT

Batna Airport

Batna, Algeria
TAF DABT 181700Z 1818/1918 26015KT 9999 FEW033 PROB30 TEMPO 1818/1821 FEW023CB BECMG 1821/1823 VRB02KT BECMG 1909/1911 30012KT TEMPO 1914/1918 FEW030CB
Issued Valid From Valid To
Jul-18 @ 17:00 UTC
(5 hours ago)
Jul-18 @ 18:00 UTC
(4 hours ago)
Jul-19 @ 18:00 UTC
(in 20 hours)
Expired Click to View Jul-18 @ 18:00 to Jul-18 @ 21:00
TAF DABT 181700Z 1818/1918 26015KT 9999 FEW033
Wind Visibility Clouds
260° at 15 knots 10,000+ meters
  • Few at 3,300' AGL
Expired Click to View Jul-18 @ 18:00 to Jul-18 @ 21:00
PROB30 TEMPO 1818/1821 FEW023CB
Clouds
  • Few at 2,300' AGL
Becoming Jul-18 @ 21:00 to Jul-19 @ 09:00
BECMG 1821/1823 VRB02KT
Wind Visibility Clouds
Variable at 2 knots 10,000+ meters
  • Few at 3,300' AGL
Becoming Jul-19 @ 09:00 to Jul-19 @ 18:00
BECMG 1909/1911 30012KT
Wind Visibility Clouds
300° at 12 knots 10,000+ meters
  • Few at 3,300' AGL
Temporary Jul-19 @ 14:00 to Jul-19 @ 18:00
TEMPO 1914/1918 FEW030CB
Clouds
  • Few at 3,000' AGL
TAF DABT 181700Z 1818/1918 26015KT 9999 FEW033 PROB30 TEMPO 1818/1821 FEW023CB BECMG 1821/1823 VRB02KT BECMG 1909/1911 30012KT TEMPO 1914/1918 FEW030CB
Issued Jul-18 @ 17:00 UTC
(5 hours ago)
Valid From Jul-18 @ 18:00 UTC
(4 hours ago)
Valid To Jul-19 @ 18:00 UTC
(in 20 hours)
Jul-18 @ 18:00 - Jul-18 @ 21:00
Wind Visibility
260° at 15 knots 10,000+ meters
Clouds
  • Few at 3,300' AGL
Jul-18 @ 18:00 - Jul-18 @ 21:00
Clouds
  • Few at 2,300' AGL
Becoming Jul-18 @ 21:00 - Jul-19 @ 09:00
Wind Visibility
Variable at 2 knots 10,000+ meters
Clouds
  • Few at 3,300' AGL
Becoming Jul-19 @ 09:00 - Jul-19 @ 18:00
Wind Visibility
300° at 12 knots 10,000+ meters
Clouds
  • Few at 3,300' AGL
Temporary Jul-19 @ 14:00 - Jul-19 @ 18:00
Clouds
  • Few at 3,000' AGL